sensor_id;sensor_type;location;lat;lon;timestamp;pressure;altitude;pressure_sealevel;temperature;humidity
52653;BME280;39353;42.864;12.014;2023-04-27T00:02:18;97478.57;;;22.55;49.93
52653;BME280;39353;42.864;12.014;2023-04-27T00:04:45;97479.35;;;22.53;49.99
52653;BME280;39353;42.864;12.014;2023-04-27T00:07:28;97475.83;;;22.51;50.03
52653;BME280;39353;42.864;12.014;2023-04-27T00:09:56;97471.66;;;22.49;50.10
52653;BME280;39353;42.864;12.014;2023-04-27T00:12:23;97473.23;;;22.46;50.21
52653;BME280;39353;42.864;12.014;2023-04-27T00:14:53;97472.76;;;22.44;50.17
52653;BME280;39353;42.864;12.014;2023-04-27T00:17:34;97471.69;;;22.42;50.10
52653;BME280;39353;42.864;12.014;2023-04-27T00:20:01;97474.10;;;22.40;50.43
52653;BME280;39353;42.864;12.014;2023-04-27T00:22:45;97472.25;;;22.38;50.38
52653;BME280;39353;42.864;12.014;2023-04-27T00:25:12;97471.75;;;22.37;50.52
52653;BME280;39353;42.864;12.014;2023-04-27T00:27:40;97473.70;;;22.36;50.37
52653;BME280;39353;42.864;12.014;2023-04-27T00:30:08;97472.43;;;22.34;50.45
52653;BME280;39353;42.864;12.014;2023-04-27T00:32:35;97470.27;;;22.32;50.43
52653;BME280;39353;42.864;12.014;2023-04-27T00:35:16;97471.16;;;22.31;50.51
52653;BME280;39353;42.864;12.014;2023-04-27T00:37:57;97474.75;;;22.30;50.57
52653;BME280;39353;42.864;12.014;2023-04-27T00:40:26;97473.94;;;22.29;50.46
52653;BME280;39353;42.864;12.014;2023-04-27T00:43:07;97469.25;;;22.27;50.50
52653;BME280;39353;42.864;12.014;2023-04-27T00:45:49;97464.71;;;22.25;50.68
52653;BME280;39353;42.864;12.014;2023-04-27T00:48:17;97465.12;;;22.23;50.65
52653;BME280;39353;42.864;12.014;2023-04-27T00:50:59;97468.27;;;22.23;50.59
52653;BME280;39353;42.864;12.014;2023-04-27T00:53:42;97463.08;;;22.22;50.62
52653;BME280;39353;42.864;12.014;2023-04-27T00:56:11;97461.84;;;22.21;50.63
52653;BME280;39353;42.864;12.014;2023-04-27T00:58:38;97460.53;;;22.21;50.64
52653;BME280;39353;42.864;12.014;2023-04-27T01:01:08;97462.52;;;22.20;50.66
52653;BME280;39353;42.864;12.014;2023-04-27T01:03:52;97452.70;;;22.18;50.70
52653;BME280;39353;42.864;12.014;2023-04-27T01:06:19;97452.45;;;22.17;50.73
52653;BME280;39353;42.864;12.014;2023-04-27T01:09:00;97453.91;;;22.16;50.75
52653;BME280;39353;42.864;12.014;2023-04-27T01:11:28;97461.77;;;22.16;50.82
52653;BME280;39353;42.864;12.014;2023-04-27T01:13:56;97461.33;;;22.15;50.84
52653;BME280;39353;42.864;12.014;2023-04-27T01:16:24;97462.02;;;22.15;50.85
52653;BME280;39353;42.864;12.014;2023-04-27T01:18:55;97463.66;;;22.13;50.83
52653;BME280;39353;42.864;12.014;2023-04-27T01:21:37;97461.20;;;22.13;50.77
52653;BME280;39353;42.864;12.014;2023-04-27T01:24:07;97461.40;;;22.11;50.77
52653;BME280;39353;42.864;12.014;2023-04-27T01:26:52;97460.73;;;22.11;50.87
52653;BME280;39353;42.864;12.014;2023-04-27T01:29:34;97467.17;;;22.11;50.77
52653;BME280;39353;42.864;12.014;2023-04-27T01:32:03;97469.29;;;22.10;50.74
52653;BME280;39353;42.864;12.014;2023-04-27T01:34:30;97475.52;;;22.10;50.90
52653;BME280;39353;42.864;12.014;2023-04-27T01:36:57;97474.61;;;22.08;50.81
52653;BME280;39353;42.864;12.014;2023-04-27T01:39:40;97477.98;;;22.08;50.99
52653;BME280;39353;42.864;12.014;2023-04-27T01:42:22;97475.13;;;22.08;50.98
52653;BME280;39353;42.864;12.014;2023-04-27T01:45:03;97477.66;;;22.07;50.86
52653;BME280;39353;42.864;12.014;2023-04-27T01:47:33;97483.37;;;22.07;50.82
52653;BME280;39353;42.864;12.014;2023-04-27T01:50:14;97484.22;;;22.07;51.02
52653;BME280;39353;42.864;12.014;2023-04-27T01:52:41;97486.20;;;22.05;51.13
52653;BME280;39353;42.864;12.014;2023-04-27T01:55:22;97478.28;;;22.05;50.98
52653;BME280;39353;42.864;12.014;2023-04-27T01:57:49;97474.63;;;22.03;51.05
52653;BME280;39353;42.864;12.014;2023-04-27T02:00:17;97474.73;;;22.03;51.07
52653;BME280;39353;42.864;12.014;2023-04-27T02:03:03;97475.37;;;22.02;51.05
52653;BME280;39353;42.864;12.014;2023-04-27T02:05:45;97472.28;;;22.01;51.06
52653;BME280;39353;42.864;12.014;2023-04-27T02:08:13;97476.20;;;22.00;51.08
52653;BME280;39353;42.864;12.014;2023-04-27T02:10:54;97485.48;;;22.00;50.98
52653;BME280;39353;42.864;12.014;2023-04-27T02:13:37;97489.45;;;21.99;51.06
52653;BME280;39353;42.864;12.014;2023-04-27T02:16:18;97489.21;;;21.99;51.08
52653;BME280;39353;42.864;12.014;2023-04-27T02:19:00;97490.77;;;21.98;51.11
52653;BME280;39353;42.864;12.014;2023-04-27T02:21:28;97485.13;;;21.97;50.99
52653;BME280;39353;42.864;12.014;2023-04-27T02:24:03;97482.45;;;21.95;51.21
52653;BME280;39353;42.864;12.014;2023-04-27T02:26:31;97474.31;;;21.95;51.17
52653;BME280;39353;42.864;12.014;2023-04-27T02:29:12;97472.44;;;21.94;51.05
52653;BME280;39353;42.864;12.014;2023-04-27T02:31:53;97472.80;;;21.94;51.14
52653;BME280;39353;42.864;12.014;2023-04-27T02:34:34;97472.90;;;21.93;51.11
52653;BME280;39353;42.864;12.014;2023-04-27T02:37:15;97475.09;;;21.93;51.12
52653;BME280;39353;42.864;12.014;2023-04-27T02:39:57;97480.89;;;21.94;51.27
52653;BME280;39353;42.864;12.014;2023-04-27T02:42:24;97481.36;;;21.93;51.17
52653;BME280;39353;42.864;12.014;2023-04-27T02:44:51;97480.48;;;21.93;51.23
52653;BME280;39353;42.864;12.014;2023-04-27T02:47:19;97483.85;;;21.92;51.08
52653;BME280;39353;42.864;12.014;2023-04-27T02:49:47;97480.91;;;21.91;51.18
52653;BME280;39353;42.864;12.014;2023-04-27T02:52:15;97485.30;;;21.90;51.15
52653;BME280;39353;42.864;12.014;2023-04-27T02:54:43;97484.54;;;21.88;51.13
52653;BME280;39353;42.864;12.014;2023-04-27T02:57:10;97482.39;;;21.88;51.11
52653;BME280;39353;42.864;12.014;2023-04-27T02:59:37;97484.50;;;21.87;51.17
52653;BME280;39353;42.864;12.014;2023-04-27T03:02:19;97483.25;;;21.86;51.19
52653;BME280;39353;42.864;12.014;2023-04-27T03:04:51;97485.54;;;21.85;51.23
52653;BME280;39353;42.864;12.014;2023-04-27T03:07:34;97486.02;;;21.85;51.26
52653;BME280;39353;42.864;12.014;2023-04-27T03:10:06;97485.36;;;21.84;51.24
52653;BME280;39353;42.864;12.014;2023-04-27T03:12:35;97484.69;;;21.84;51.18
52653;BME280;39353;42.864;12.014;2023-04-27T03:15:03;97484.04;;;21.83;51.21
52653;BME280;39353;42.864;12.014;2023-04-27T03:17:31;97485.01;;;21.83;51.18
52653;BME280;39353;42.864;12.014;2023-04-27T03:19:58;97486.29;;;21.82;51.27
52653;BME280;39353;42.864;12.014;2023-04-27T03:22:25;97487.55;;;21.81;51.34
52653;BME280;39353;42.864;12.014;2023-04-27T03:24:52;97494.02;;;21.80;51.19
52653;BME280;39353;42.864;12.014;2023-04-27T03:27:20;97494.41;;;21.80;51.25
52653;BME280;39353;42.864;12.014;2023-04-27T03:30:04;97495.86;;;21.79;51.27
52653;BME280;39353;42.864;12.014;2023-04-27T03:32:32;97498.84;;;21.78;51.50
52653;BME280;39353;42.864;12.014;2023-04-27T03:35:03;97497.75;;;21.78;51.30
52653;BME280;39353;42.864;12.014;2023-04-27T03:37:32;97496.50;;;21.78;51.47
52653;BME280;39353;42.864;12.014;2023-04-27T03:40:14;97497.58;;;21.78;51.23
52653;BME280;39353;42.864;12.014;2023-04-27T03:42:55;97498.83;;;21.77;51.25
52653;BME280;39353;42.864;12.014;2023-04-27T03:45:22;97499.63;;;21.77;51.34
52653;BME280;39353;42.864;12.014;2023-04-27T03:48:08;97501.10;;;21.76;51.43
52653;BME280;39353;42.864;12.014;2023-04-27T03:50:49;97503.59;;;21.76;51.38
52653;BME280;39353;42.864;12.014;2023-04-27T03:53:16;97498.55;;;21.75;51.35
52653;BME280;39353;42.864;12.014;2023-04-27T03:55:43;97500.98;;;21.75;51.37
52653;BME280;39353;42.864;12.014;2023-04-27T03:58:25;97499.06;;;21.74;51.46
52653;BME280;39353;42.864;12.014;2023-04-27T04:00:54;97499.78;;;21.74;51.44
52653;BME280;39353;42.864;12.014;2023-04-27T04:03:25;97504.96;;;21.74;51.42
52653;BME280;39353;42.864;12.014;2023-04-27T04:06:07;97505.55;;;21.73;51.51
52653;BME280;39353;42.864;12.014;2023-04-27T04:08:34;97504.17;;;21.73;51.61
52653;BME280;39353;42.864;12.014;2023-04-27T04:11:15;97505.56;;;21.72;51.47
52653;BME280;39353;42.864;12.014;2023-04-27T04:13:43;97507.63;;;21.72;51.61
52653;BME280;39353;42.864;12.014;2023-04-27T04:16:24;97509.75;;;21.71;51.38
52653;BME280;39353;42.864;12.014;2023-04-27T04:19:07;97510.92;;;21.72;51.32
52653;BME280;39353;42.864;12.014;2023-04-27T04:21:35;97512.81;;;21.71;51.50
52653;BME280;39353;42.864;12.014;2023-04-27T04:24:17;97517.16;;;21.70;51.29
52653;BME280;39353;42.864;12.014;2023-04-27T04:26:58;97521.92;;;21.71;51.50
52653;BME280;39353;42.864;12.014;2023-04-27T04:29:26;97527.45;;;21.72;51.37
52653;BME280;39353;42.864;12.014;2023-04-27T04:32:07;97537.23;;;21.72;50.71
52653;BME280;39353;42.864;12.014;2023-04-27T04:34:51;97543.02;;;21.70;49.80
52653;BME280;39353;42.864;12.014;2023-04-27T04:37:20;97542.86;;;21.70;50.21
52653;BME280;39353;42.864;12.014;2023-04-27T04:40:04;97542.75;;;21.69;50.86
52653;BME280;39353;42.864;12.014;2023-04-27T04:42:35;97545.73;;;21.69;50.86
52653;BME280;39353;42.864;12.014;2023-04-27T04:45:17;97545.52;;;21.69;50.31
52653;BME280;39353;42.864;12.014;2023-04-27T04:47:44;97547.74;;;21.69;49.75
52653;BME280;39353;42.864;12.014;2023-04-27T04:50:13;97547.10;;;21.67;49.45
52653;BME280;39353;42.864;12.014;2023-04-27T04:52:40;97553.66;;;21.67;49.67
52653;BME280;39353;42.864;12.014;2023-04-27T04:55:21;97556.29;;;21.68;49.82
52653;BME280;39353;42.864;12.014;2023-04-27T04:58:02;97556.08;;;21.68;49.94
52653;BME280;39353;42.864;12.014;2023-04-27T05:00:29;97557.00;;;21.68;49.87
52653;BME280;39353;42.864;12.014;2023-04-27T05:03:14;97561.63;;;21.69;49.82
52653;BME280;39353;42.864;12.014;2023-04-27T05:05:41;97561.88;;;21.68;50.00
52653;BME280;39353;42.864;12.014;2023-04-27T05:08:09;97565.23;;;21.68;49.80
52653;BME280;39353;42.864;12.014;2023-04-27T05:10:51;97569.42;;;21.70;50.16
52653;BME280;39353;42.864;12.014;2023-04-27T05:13:20;97577.16;;;21.72;49.85
52653;BME280;39353;42.864;12.014;2023-04-27T05:15:48;97580.98;;;21.73;50.20
52653;BME280;39353;42.864;12.014;2023-04-27T05:18:29;97579.66;;;21.73;50.21
52653;BME280;39353;42.864;12.014;2023-04-27T05:20:56;97584.14;;;21.75;50.40
52653;BME280;39353;42.864;12.014;2023-04-27T05:23:25;97582.45;;;21.79;50.50
52653;BME280;39353;42.864;12.014;2023-04-27T05:26:13;97583.05;;;21.82;50.62
52653;BME280;39353;42.864;12.014;2023-04-27T05:28:54;97589.50;;;21.85;50.53
52653;BME280;39353;42.864;12.014;2023-04-27T05:31:22;97589.02;;;21.86;50.65
52653;BME280;39353;42.864;12.014;2023-04-27T05:33:49;97584.64;;;21.87;50.86
52653;BME280;39353;42.864;12.014;2023-04-27T05:36:30;97584.82;;;21.90;50.96
52653;BME280;39353;42.864;12.014;2023-04-27T05:39:12;97585.17;;;21.93;50.91
52653;BME280;39353;42.864;12.014;2023-04-27T05:41:54;97587.17;;;21.93;50.85
52653;BME280;39353;42.864;12.014;2023-04-27T05:44:35;97583.24;;;21.92;50.98
52653;BME280;39353;42.864;12.014;2023-04-27T05:47:03;97585.88;;;21.93;51.00
52653;BME280;39353;42.864;12.014;2023-04-27T05:49:43;97589.14;;;21.94;51.03
52653;BME280;39353;42.864;12.014;2023-04-27T05:52:15;97590.05;;;21.96;51.07
52653;BME280;39353;42.864;12.014;2023-04-27T05:54:48;97590.94;;;21.96;51.15
52653;BME280;39353;42.864;12.014;2023-04-27T05:57:16;97589.08;;;21.96;51.19
52653;BME280;39353;42.864;12.014;2023-04-27T05:59:43;97594.45;;;21.97;51.00
52653;BME280;39353;42.864;12.014;2023-04-27T06:02:11;97596.33;;;21.97;51.17
52653;BME280;39353;42.864;12.014;2023-04-27T06:04:39;97598.00;;;21.99;51.14
52653;BME280;39353;42.864;12.014;2023-04-27T06:07:10;97604.73;;;22.01;51.13
52653;BME280;39353;42.864;12.014;2023-04-27T06:09:52;97606.68;;;22.02;51.23
52653;BME280;39353;42.864;12.014;2023-04-27T06:12:33;97608.31;;;22.02;50.99
52653;BME280;39353;42.864;12.014;2023-04-27T06:15:00;97610.55;;;22.02;50.72
52653;BME280;39353;42.864;12.014;2023-04-27T06:17:43;97608.85;;;22.00;50.26
52653;BME280;39353;42.864;12.014;2023-04-27T06:20:11;97609.35;;;21.98;50.28
52653;BME280;39353;42.864;12.014;2023-04-27T06:22:40;97611.48;;;21.98;50.26
52653;BME280;39353;42.864;12.014;2023-04-27T06:25:07;97613.63;;;21.99;49.92
52653;BME280;39353;42.864;12.014;2023-04-27T06:27:48;97612.43;;;21.97;48.67
52653;BME280;39353;42.864;12.014;2023-04-27T06:30:15;97609.48;;;21.79;44.97
52653;BME280;39353;42.864;12.014;2023-04-27T06:32:56;97614.48;;;21.78;47.41
52653;BME280;39353;42.864;12.014;2023-04-27T06:35:24;97618.70;;;21.84;48.36
52653;BME280;39353;42.864;12.014;2023-04-27T06:37:55;97614.91;;;21.90;48.50
52653;BME280;39353;42.864;12.014;2023-04-27T06:40:38;97621.71;;;21.97;48.69
52653;BME280;39353;42.864;12.014;2023-04-27T06:43:07;97627.67;;;22.01;48.86
52653;BME280;39353;42.864;12.014;2023-04-27T06:45:49;97623.14;;;22.07;48.76
52653;BME280;39353;42.864;12.014;2023-04-27T06:48:30;97627.99;;;22.09;48.27
52653;BME280;39353;42.864;12.014;2023-04-27T06:51:11;97626.62;;;22.08;48.67
52653;BME280;39353;42.864;12.014;2023-04-27T06:53:39;97629.20;;;22.08;48.86
52653;BME280;39353;42.864;12.014;2023-04-27T06:56:19;97631.70;;;22.08;48.95
52653;BME280;39353;42.864;12.014;2023-04-27T06:58:47;97628.41;;;22.09;48.92
52653;BME280;39353;42.864;12.014;2023-04-27T07:01:28;97632.64;;;22.10;49.04
52653;BME280;39353;42.864;12.014;2023-04-27T07:03:55;97629.16;;;22.11;49.08
52653;BME280;39353;42.864;12.014;2023-04-27T07:06:37;97631.38;;;22.13;49.24
52653;BME280;39353;42.864;12.014;2023-04-27T07:09:18;97629.73;;;22.12;49.24
52653;BME280;39353;42.864;12.014;2023-04-27T07:11:46;97626.98;;;22.14;49.27
52653;BME280;39353;42.864;12.014;2023-04-27T07:14:15;97630.16;;;22.16;49.19
52653;BME280;39353;42.864;12.014;2023-04-27T07:16:42;97631.20;;;22.16;49.30
52653;BME280;39353;42.864;12.014;2023-04-27T07:19:23;97634.73;;;22.17;49.36
52653;BME280;39353;42.864;12.014;2023-04-27T07:21:51;97631.45;;;22.17;49.43
52653;BME280;39353;42.864;12.014;2023-04-27T07:24:32;97631.14;;;22.17;49.54
52653;BME280;39353;42.864;12.014;2023-04-27T07:26:59;97633.23;;;22.18;49.37
52653;BME280;39353;42.864;12.014;2023-04-27T07:29:42;97631.46;;;22.20;49.51
52653;BME280;39353;42.864;12.014;2023-04-27T07:32:11;97632.46;;;22.20;49.42
52653;BME280;39353;42.864;12.014;2023-04-27T07:34:38;97632.42;;;22.21;49.29
52653;BME280;39353;42.864;12.014;2023-04-27T07:37:19;97631.89;;;22.22;49.33
52653;BME280;39353;42.864;12.014;2023-04-27T07:39:49;97630.14;;;22.21;49.39
52653;BME280;39353;42.864;12.014;2023-04-27T07:42:19;97630.92;;;22.22;49.25
52653;BME280;39353;42.864;12.014;2023-04-27T07:44:48;97633.56;;;22.23;49.24
52653;BME280;39353;42.864;12.014;2023-04-27T07:47:17;97635.23;;;22.24;49.25
52653;BME280;39353;42.864;12.014;2023-04-27T07:49:45;97628.92;;;22.23;49.31
52653;BME280;39353;42.864;12.014;2023-04-27T07:52:26;97632.80;;;22.23;49.25
52653;BME280;39353;42.864;12.014;2023-04-27T07:54:53;97628.44;;;22.23;49.37
52653;BME280;39353;42.864;12.014;2023-04-27T07:57:20;97625.50;;;22.23;49.29
52653;BME280;39353;42.864;12.014;2023-04-27T07:59:48;97624.39;;;22.23;49.33
52653;BME280;39353;42.864;12.014;2023-04-27T08:02:15;97625.02;;;22.24;49.28
52653;BME280;39353;42.864;12.014;2023-04-27T08:04:56;97625.45;;;22.23;49.35
52653;BME280;39353;42.864;12.014;2023-04-27T08:07:37;97627.02;;;22.24;49.36
52653;BME280;39353;42.864;12.014;2023-04-27T08:10:06;97628.71;;;22.23;49.32
52653;BME280;39353;42.864;12.014;2023-04-27T08:12:49;97628.77;;;22.23;49.32
52653;BME280;39353;42.864;12.014;2023-04-27T08:15:16;97627.50;;;22.23;49.35
52653;BME280;39353;42.864;12.014;2023-04-27T08:17:57;97633.27;;;22.23;49.39
52653;BME280;39353;42.864;12.014;2023-04-27T08:20:24;97636.33;;;22.24;49.33
52653;BME280;39353;42.864;12.014;2023-04-27T08:22:51;97636.88;;;22.24;49.49
52653;BME280;39353;42.864;12.014;2023-04-27T08:25:35;97635.27;;;22.23;49.44
52653;BME280;39353;42.864;12.014;2023-04-27T08:28:02;97636.92;;;22.23;49.41
52653;BME280;39353;42.864;12.014;2023-04-27T08:30:29;97638.39;;;22.23;49.41
52653;BME280;39353;42.864;12.014;2023-04-27T08:33:11;97637.64;;;22.22;49.44
52653;BME280;39353;42.864;12.014;2023-04-27T08:35:53;97643.31;;;22.23;49.44
52653;BME280;39353;42.864;12.014;2023-04-27T08:38:21;97641.17;;;22.23;49.36
52653;BME280;39353;42.864;12.014;2023-04-27T08:41:02;97643.91;;;22.23;49.48
52653;BME280;39353;42.864;12.014;2023-04-27T08:43:35;97641.23;;;22.23;49.40
52653;BME280;39353;42.864;12.014;2023-04-27T08:46:03;97637.59;;;22.23;49.14
52653;BME280;39353;42.864;12.014;2023-04-27T08:48:30;97636.27;;;22.22;49.32
52653;BME280;39353;42.864;12.014;2023-04-27T08:51:13;97638.04;;;22.22;49.15
52653;BME280;39353;42.864;12.014;2023-04-27T08:53:56;97636.77;;;22.22;49.20
52653;BME280;39353;42.864;12.014;2023-04-27T08:56:37;97638.23;;;22.22;49.20
52653;BME280;39353;42.864;12.014;2023-04-27T08:59:18;97637.91;;;22.22;49.15
52653;BME280;39353;42.864;12.014;2023-04-27T09:01:59;97639.16;;;22.22;49.12
52653;BME280;39353;42.864;12.014;2023-04-27T09:04:39;97639.17;;;22.22;49.20
52653;BME280;39353;42.864;12.014;2023-04-27T09:07:21;97641.18;;;22.22;49.07
52653;BME280;39353;42.864;12.014;2023-04-27T09:10:03;97642.46;;;22.22;49.11
52653;BME280;39353;42.864;12.014;2023-04-27T09:12:31;97641.23;;;22.21;48.93
52653;BME280;39353;42.864;12.014;2023-04-27T09:15:00;97637.70;;;22.22;48.84
52653;BME280;39353;42.864;12.014;2023-04-27T09:17:29;97633.46;;;22.21;48.93
52653;BME280;39353;42.864;12.014;2023-04-27T09:20:07;97634.35;;;22.21;49.01
52653;BME280;39353;42.864;12.014;2023-04-27T09:22:53;97632.63;;;22.20;49.12
52653;BME280;39353;42.864;12.014;2023-04-27T09:25:37;97634.64;;;22.20;48.96
52653;BME280;39353;42.864;12.014;2023-04-27T09:28:18;97632.55;;;22.20;49.01
52653;BME280;39353;42.864;12.014;2023-04-27T09:31:01;97629.36;;;22.19;48.95
52653;BME280;39353;42.864;12.014;2023-04-27T09:33:31;97627.77;;;22.18;48.88
52653;BME280;39353;42.864;12.014;2023-04-27T09:36:13;97634.16;;;22.18;48.89
52653;BME280;39353;42.864;12.014;2023-04-27T09:38:55;97633.27;;;22.20;48.38
52653;BME280;39353;42.864;12.014;2023-04-27T09:41:24;97633.11;;;22.22;48.27
52653;BME280;39353;42.864;12.014;2023-04-27T09:44:06;97640.31;;;22.27;48.39
52653;BME280;39353;42.864;12.014;2023-04-27T09:46:35;97641.73;;;22.31;48.41
52653;BME280;39353;42.864;12.014;2023-04-27T09:49:17;97638.95;;;22.34;49.04
52653;BME280;39353;42.864;12.014;2023-04-27T09:51:45;97644.48;;;22.36;49.35
52653;BME280;39353;42.864;12.014;2023-04-27T09:54:14;97643.24;;;22.37;49.56
52653;BME280;39353;42.864;12.014;2023-04-27T10:00:12;97638.23;;;22.38;50.61
52653;BME280;39353;42.864;12.014;2023-04-27T10:03:12;97640.25;;;22.38;50.51
52653;BME280;39353;42.864;12.014;2023-04-27T10:06:26;97636.24;;;22.40;50.53
52653;BME280;39353;42.864;12.014;2023-04-27T10:09:20;97640.80;;;22.40;51.01
52653;BME280;39353;42.864;12.014;2023-04-27T10:14:53;97634.64;;;22.36;50.28
52653;BME280;39353;42.864;12.014;2023-04-27T10:17:33;97635.02;;;22.33;49.57
52653;BME280;39353;42.864;12.014;2023-04-27T10:20:14;97637.11;;;22.30;49.38
52653;BME280;39353;42.864;12.014;2023-04-27T10:22:58;97633.84;;;22.27;49.32
52653;BME280;39353;42.864;12.014;2023-04-27T10:25:28;97631.80;;;22.26;49.32
52653;BME280;39353;42.864;12.014;2023-04-27T10:28:15;97626.55;;;22.24;49.42
52653;BME280;39353;42.864;12.014;2023-04-27T10:31:09;97621.79;;;22.23;49.01
52653;BME280;39353;42.864;12.014;2023-04-27T10:33:51;97622.09;;;22.23;49.21
52653;BME280;39353;42.864;12.014;2023-04-27T10:36:38;97623.06;;;22.22;49.26
52653;BME280;39353;42.864;12.014;2023-04-27T10:39:21;97621.15;;;22.24;48.74
52653;BME280;39353;42.864;12.014;2023-04-27T10:42:06;97620.37;;;22.30;48.98
52653;BME280;39353;42.864;12.014;2023-04-27T10:44:55;97617.62;;;22.38;50.02
52653;BME280;39353;42.864;12.014;2023-04-27T10:47:22;97619.45;;;22.46;51.63
52653;BME280;39353;42.864;12.014;2023-04-27T10:49:52;97609.88;;;22.54;52.21
52653;BME280;39353;42.864;12.014;2023-04-27T10:52:22;97609.97;;;22.64;53.53
52653;BME280;39353;42.864;12.014;2023-04-27T10:55:12;97610.03;;;22.74;55.13
52653;BME280;39353;42.864;12.014;2023-04-27T10:57:55;97612.59;;;22.81;55.49
52653;BME280;39353;42.864;12.014;2023-04-27T11:00:29;97611.46;;;22.83;51.50
52653;BME280;39353;42.864;12.014;2023-04-27T11:03:16;97611.15;;;22.69;41.47
52653;BME280;39353;42.864;12.014;2023-04-27T11:05:45;97614.86;;;22.68;46.22
52653;BME280;39353;42.864;12.014;2023-04-27T11:08:27;97613.16;;;22.72;49.01
52653;BME280;39353;42.864;12.014;2023-04-27T11:10:56;97612.48;;;22.76;50.90
52653;BME280;39353;42.864;12.014;2023-04-27T11:13:26;97613.72;;;22.82;52.47
52653;BME280;39353;42.864;12.014;2023-04-27T11:16:08;97611.17;;;22.85;53.43
52653;BME280;39353;42.864;12.014;2023-04-27T11:18:36;97608.77;;;22.89;55.23
52653;BME280;39353;42.864;12.014;2023-04-27T11:21:11;97602.80;;;22.92;55.67
52653;BME280;39353;42.864;12.014;2023-04-27T11:23:40;97598.63;;;22.96;55.76
52653;BME280;39353;42.864;12.014;2023-04-27T11:26:22;97595.28;;;22.96;55.20
52653;BME280;39353;42.864;12.014;2023-04-27T11:29:08;97594.45;;;22.93;55.03
52653;BME280;39353;42.864;12.014;2023-04-27T11:31:53;97598.21;;;22.90;53.85
52653;BME280;39353;42.864;12.014;2023-04-27T11:34:23;97600.86;;;22.86;53.08
52653;BME280;39353;42.864;12.014;2023-04-27T11:36:59;97598.23;;;22.82;52.27
52653;BME280;39353;42.864;12.014;2023-04-27T11:39:32;97597.02;;;22.79;51.72
52653;BME280;39353;42.864;12.014;2023-04-27T11:42:22;97592.65;;;22.76;51.88
52653;BME280;39353;42.864;12.014;2023-04-27T11:45:04;97594.71;;;22.74;50.08
52653;BME280;39353;42.864;12.014;2023-04-27T11:47:33;97591.14;;;22.71;51.12
52653;BME280;39353;42.864;12.014;2023-04-27T11:50:16;97590.30;;;22.68;51.13
52653;BME280;39353;42.864;12.014;2023-04-27T11:52:48;97586.93;;;22.67;51.08
52653;BME280;39353;42.864;12.014;2023-04-27T11:55:40;97587.50;;;22.59;44.23
52653;BME280;39353;42.864;12.014;2023-04-27T11:58:17;97592.02;;;22.55;44.11
52653;BME280;39353;42.864;12.014;2023-04-27T12:01:03;97592.17;;;22.51;41.39
52653;BME280;39353;42.864;12.014;2023-04-27T12:04:03;97590.17;;;22.52;44.24
52653;BME280;39353;42.864;12.014;2023-04-27T12:06:44;97587.34;;;22.50;43.60
52653;BME280;39353;42.864;12.014;2023-04-27T12:09:15;97586.13;;;22.45;39.61
52653;BME280;39353;42.864;12.014;2023-04-27T12:11:58;97583.05;;;22.37;36.48
52653;BME280;39353;42.864;12.014;2023-04-27T12:14:39;97590.54;;;22.35;38.48
52653;BME280;39353;42.864;12.014;2023-04-27T12:17:21;97588.90;;;22.35;39.64
52653;BME280;39353;42.864;12.014;2023-04-27T12:19:49;97585.95;;;22.36;41.90
52653;BME280;39353;42.864;12.014;2023-04-27T12:22:29;97581.54;;;22.38;41.32
52653;BME280;39353;42.864;12.014;2023-04-27T12:24:58;97584.45;;;22.41;42.60
52653;BME280;39353;42.864;12.014;2023-04-27T12:27:25;97582.19;;;22.43;42.74
52653;BME280;39353;42.864;12.014;2023-04-27T12:29:53;97589.14;;;22.45;43.32
52653;BME280;39353;42.864;12.014;2023-04-27T12:32:21;97586.67;;;22.47;43.49
52653;BME280;39353;42.864;12.014;2023-04-27T12:35:04;97585.83;;;22.48;44.36
52653;BME280;39353;42.864;12.014;2023-04-27T12:37:47;97586.85;;;22.47;44.79
52653;BME280;39353;42.864;12.014;2023-04-27T12:40:29;97582.30;;;22.47;44.92
52653;BME280;39353;42.864;12.014;2023-04-27T12:43:11;97586.56;;;22.49;44.75
52653;BME280;39353;42.864;12.014;2023-04-27T12:45:40;97584.16;;;22.50;44.67
52653;BME280;39353;42.864;12.014;2023-04-27T12:48:22;97577.94;;;22.50;45.00
52653;BME280;39353;42.864;12.014;2023-04-27T12:51:04;97580.99;;;22.52;44.63
52653;BME280;39353;42.864;12.014;2023-04-27T12:53:46;97581.49;;;22.53;45.11
52653;BME280;39353;42.864;12.014;2023-04-27T12:56:27;97579.51;;;22.54;45.10
52653;BME280;39353;42.864;12.014;2023-04-27T12:59:14;97573.85;;;22.53;44.82
52653;BME280;39353;42.864;12.014;2023-04-27T13:01:56;97571.96;;;22.52;44.19
52653;BME280;39353;42.864;12.014;2023-04-27T13:04:40;97576.83;;;22.51;44.46
52653;BME280;39353;42.864;12.014;2023-04-27T13:07:21;97576.94;;;22.49;42.25
52653;BME280;39353;42.864;12.014;2023-04-27T13:10:03;97578.46;;;22.47;41.34
52653;BME280;39353;42.864;12.014;2023-04-27T13:12:44;97579.90;;;22.47;43.44
52653;BME280;39353;42.864;12.014;2023-04-27T13:15:25;97577.64;;;22.49;43.83
52653;BME280;39353;42.864;12.014;2023-04-27T13:18:06;97574.75;;;22.49;43.86
52653;BME280;39353;42.864;12.014;2023-04-27T13:20:47;97573.54;;;22.51;44.34
52653;BME280;39353;42.864;12.014;2023-04-27T13:23:15;97573.37;;;22.51;44.56
52653;BME280;39353;42.864;12.014;2023-04-27T13:25:57;97571.83;;;22.50;44.60
52653;BME280;39353;42.864;12.014;2023-04-27T13:28:41;97572.32;;;22.51;44.65
52653;BME280;39353;42.864;12.014;2023-04-27T13:31:08;97571.61;;;22.51;45.01
52653;BME280;39353;42.864;12.014;2023-04-27T13:33:43;97574.84;;;22.51;44.98
52653;BME280;39353;42.864;12.014;2023-04-27T13:36:11;97575.78;;;22.51;44.90
52653;BME280;39353;42.864;12.014;2023-04-27T13:38:39;97573.17;;;22.50;45.03
52653;BME280;39353;42.864;12.014;2023-04-27T13:41:20;97570.73;;;22.51;45.13